Overview Statistics Trail Chart Weather Telemetry Raw packets
 

This is the latest recevied weather packets stored in our database for station/object Aldingen. If no packets are shown the sender has not sent any weather packets the latest 10 day(s).

<< 16 17 18 19 20 >>
Time Temp. Humidity Pressure Rain* Wind** Luminosity Snow
1787792530 15.56° C 91% 1011.7 hPa 0 mm - - -
1787790731 15.56° C 90% 1011.6 hPa 0 mm - - -
1787788931 15.56° C 90% 1011.8 hPa 0 mm - - -
1787787131 16.11° C 89% 1012.1 hPa 0 mm - - -
1787785331 16.67° C 89% 1012.1 hPa 0 mm - - -
1787783531 16.11° C 89% 1012.2 hPa 0 mm - - -
1787781731 17.22° C 86% 1012.1 hPa 0 mm - - -
1787779931 17.22° C 86% 1012.1 hPa 0 mm - - -
1787778131 18.33° C 84% 1012.3 hPa 0 mm - - -
1787776332 18.89° C 82% 1012.4 hPa 0 mm - - -
1787774532 20° C 79% 1012.5 hPa 0 mm - - -
1787772730 20.56° C 76% 1012.6 hPa 0 mm - - -
1787770931 21.11° C 74% 1012.6 hPa 0 mm - - -
1787769131 22.22° C 71% 1012.2 hPa 0 mm - - -
1787767330 23.89° C 63% 1012.3 hPa 0 mm - - -
1787765530 25.56° C 56% 1012.2 hPa 0 mm - - -
1787763731 26.11° C 53% 1012.4 hPa 0 mm - - -
1787761931 26.11° C 55% 1012.4 hPa 0 mm - - -
1787760131 26.11° C 53% 1012.7 hPa 0 mm - - -
1787758331 26.11° C 51% 1012.9 hPa 0 mm - - -
1787756530 26.11° C 51% 1012.7 hPa 0 mm - - -
1787754731 27.22° C 50% 1013 hPa 0 mm - - -
1787752930 26.11° C 52% 1013.3 hPa 0 mm - - -
1787751131 25.56° C 52% 1013.5 hPa 0 mm - - -
1787749330 26.11° C 50% 1013.7 hPa 0 mm - - -

* Rain since midnight (hover to see other rain measurements)
** Current wind speed in m/s (hover to see current wind gust speed)